createdAt,value
2017-08-05T00:00:22.694Z,70.20
2017-08-05T00:02:50.192Z,69.70
2017-08-05T00:05:17.709Z,71.30
2017-08-05T00:07:46.025Z,70.70
2017-08-05T00:10:13.506Z,70.70
2017-08-05T00:12:41.013Z,71.00
2017-08-05T00:15:08.494Z,71.40
2017-08-05T00:17:36.796Z,71.80
2017-08-05T00:20:04.337Z,71.60
2017-08-05T00:22:31.837Z,72.10
2017-08-05T00:24:59.344Z,72.20
2017-08-05T00:27:26.860Z,71.50
2017-08-05T00:29:54.344Z,71.00
2017-08-05T00:32:21.876Z,70.50
2017-08-05T00:34:49.397Z,70.40
2017-08-05T00:37:16.941Z,70.40
2017-08-05T00:39:44.500Z,70.10
2017-08-05T00:42:12.017Z,70.20
2017-08-05T00:44:39.506Z,70.40
2017-08-05T00:47:06.992Z,70.60
2017-08-05T00:49:35.276Z,71.40
2017-08-05T00:52:02.765Z,71.40
2017-08-05T00:54:30.365Z,70.90
2017-08-05T00:56:57.930Z,70.50
2017-08-05T00:59:25.453Z,69.60
2017-08-05T01:01:52.936Z,69.40
2017-08-05T01:04:20.536Z,70.40
2017-08-05T01:06:48.107Z,71.00
2017-08-05T01:09:15.608Z,70.70
2017-08-05T01:11:43.867Z,71.00
2017-08-05T01:14:11.429Z,71.00
2017-08-05T01:16:38.973Z,70.80
2017-08-05T01:19:06.449Z,70.80
2017-08-05T01:21:34.057Z,71.00
2017-08-05T01:24:01.604Z,71.00
2017-08-05T01:26:29.149Z,69.30
2017-08-05T01:28:56.697Z,70.10
2017-08-05T01:31:24.209Z,70.40
2017-08-05T01:33:52.461Z,70.30
2017-08-05T01:36:19.967Z,70.30
2017-08-05T01:38:47.461Z,70.70
2017-08-05T01:41:15.030Z,70.90
2017-08-05T01:43:42.517Z,71.00
2017-08-05T01:46:10.026Z,71.90
2017-08-05T01:48:37.509Z,72.00
2017-08-05T01:51:05.098Z,73.10
2017-08-05T01:53:32.645Z,74.20
2017-08-05T01:56:00.133Z,73.60
2017-08-05T01:58:27.646Z,74.90
2017-08-05T02:00:55.146Z,75.10
2017-08-05T02:03:23.413Z,77.20
2017-08-05T02:05:51.697Z,76.50
2017-08-05T02:08:19.278Z,76.40
2017-08-05T02:10:46.913Z,77.30
2017-08-05T02:13:14.429Z,78.10
2017-08-05T02:15:41.918Z,78.40
2017-08-05T02:18:09.518Z,78.90
2017-08-05T02:20:37.161Z,79.50
2017-08-05T02:23:04.686Z,79.00
2017-08-05T02:25:32.993Z,79.70
2017-08-05T02:28:00.534Z,79.70
2017-08-05T02:30:28.045Z,80.60
2017-08-05T02:32:55.601Z,80.60
2017-08-05T02:35:23.146Z,80.30
2017-08-05T02:37:50.639Z,80.10
2017-08-05T02:40:18.228Z,81.20
2017-08-05T02:42:45.740Z,81.50
2017-08-05T02:45:13.318Z,81.40
2017-08-05T02:47:40.809Z,82.70
2017-08-05T02:50:08.349Z,81.00
2017-08-05T02:52:35.893Z,80.60
2017-08-05T02:55:03.377Z,81.00
2017-08-05T02:57:31.657Z,81.00
2017-08-05T02:59:59.304Z,80.90
2017-08-05T03:02:26.854Z,80.70
2017-08-05T03:04:54.341Z,80.90
2017-08-05T03:07:21.937Z,81.60
2017-08-05T03:09:49.498Z,82.20
2017-08-05T03:12:17.125Z,82.40
2017-08-05T03:14:44.617Z,82.80
2017-08-05T03:17:12.237Z,82.30
2017-08-05T03:19:39.737Z,82.10
2017-08-05T03:22:08.014Z,82.20
2017-08-05T03:24:35.517Z,82.10
2017-08-05T03:27:03.009Z,81.20
2017-08-05T03:29:30.618Z,83.10
2017-08-05T03:31:58.912Z,82.60
2017-08-05T03:34:26.429Z,82.50
2017-08-05T03:36:54.677Z,81.90
2017-08-05T03:39:22.253Z,81.90
2017-08-05T03:41:49.753Z,82.60
2017-08-05T03:44:17.290Z,82.30
2017-08-05T03:46:44.805Z,82.60
2017-08-05T03:49:12.290Z,83.00
2017-08-05T03:51:39.874Z,82.80
2017-08-05T03:54:07.421Z,82.50
2017-08-05T03:56:34.965Z,82.90
2017-08-05T03:59:02.462Z,82.40
2017-08-05T04:01:29.968Z,83.00
2017-08-05T04:03:57.493Z,81.20
2017-08-05T04:06:25.038Z,81.00
2017-08-05T04:08:52.592Z,81.40
2017-08-05T04:11:20.077Z,81.30
2017-08-05T04:13:47.778Z,81.20
2017-08-05T04:16:15.321Z,81.50
2017-08-05T04:18:42.830Z,80.10
2017-08-05T04:21:11.081Z,80.70
2017-08-05T04:23:38.582Z,80.60
2017-08-05T04:26:06.131Z,81.30
2017-08-05T04:28:33.652Z,81.50
2017-08-05T04:31:01.217Z,81.00
2017-08-05T04:33:28.745Z,81.90
2017-08-05T04:35:56.295Z,82.90
2017-08-05T04:38:23.813Z,81.70
2017-08-05T04:40:51.369Z,80.90
2017-08-05T04:43:18.982Z,81.40
2017-08-05T04:45:46.492Z,81.90
2017-08-05T04:48:14.001Z,82.20
2017-08-05T04:50:41.582Z,82.00
2017-08-05T04:53:09.088Z,82.10
2017-08-05T04:55:36.633Z,81.40
2017-08-05T04:58:04.177Z,81.60
2017-08-05T05:00:31.730Z,81.70
2017-08-05T05:02:59.282Z,82.10
2017-08-05T05:05:26.813Z,81.30
2017-08-05T05:07:54.360Z,81.60
2017-08-05T05:10:21.898Z,83.00
2017-08-05T05:12:49.388Z,83.00
2017-08-05T05:15:16.897Z,83.30
2017-08-05T05:17:44.531Z,82.70
2017-08-05T05:20:12.077Z,82.90
2017-08-05T05:22:39.621Z,82.40
2017-08-05T05:25:07.161Z,82.10
2017-08-05T05:27:34.661Z,82.10
2017-08-05T05:30:02.148Z,82.40
2017-08-05T05:32:29.665Z,81.70
2017-08-05T05:34:57.922Z,84.30
2017-08-05T05:37:25.597Z,84.30
2017-08-05T05:39:53.085Z,85.50
2017-08-05T05:42:20.685Z,84.50
2017-08-05T05:44:48.256Z,85.20
2017-08-05T05:47:15.781Z,85.10
2017-08-05T05:49:43.271Z,85.20
2017-08-05T05:52:10.863Z,84.40
2017-08-05T05:54:38.406Z,84.40
2017-08-05T05:57:05.950Z,83.80
2017-08-05T05:59:33.493Z,85.20
2017-08-05T06:02:00.985Z,84.60
2017-08-05T06:04:28.494Z,84.80
2017-08-05T06:06:55.988Z,85.60
2017-08-05T06:09:23.568Z,87.80
2017-08-05T06:11:51.113Z,86.40
2017-08-05T06:14:18.602Z,86.40
2017-08-05T06:16:46.105Z,86.50
2017-08-05T06:19:13.597Z,88.20
2017-08-05T06:21:41.109Z,88.20
2017-08-05T06:24:08.628Z,90.10
2017-08-05T06:26:36.128Z,90.00
2017-08-05T06:29:03.713Z,90.00
2017-08-05T06:31:31.283Z,90.20
2017-08-05T06:33:58.805Z,90.20
2017-08-05T06:36:26.354Z,90.00
2017-08-05T06:38:53.993Z,90.60
2017-08-05T06:41:21.541Z,90.50
2017-08-05T06:43:49.085Z,89.80
2017-08-05T06:46:16.587Z,90.20
2017-08-05T06:48:44.300Z,90.50
2017-08-05T06:51:11.786Z,91.30
2017-08-05T06:53:40.078Z,91.20
2017-08-05T06:56:07.590Z,91.20
2017-08-05T06:58:35.919Z,91.30
2017-08-05T07:01:03.403Z,91.20
2017-08-05T07:03:31.677Z,91.60
2017-08-05T07:05:59.213Z,91.60
2017-08-05T07:08:27.621Z,91.80
2017-08-05T07:10:55.241Z,91.80
2017-08-05T07:13:22.784Z,91.10
2017-08-05T07:15:50.329Z,90.70
2017-08-05T07:18:17.872Z,90.90
2017-08-05T07:20:45.380Z,91.20
2017-08-05T07:23:12.865Z,91.30
2017-08-05T07:25:40.369Z,91.20
2017-08-05T07:28:08.621Z,91.00
2017-08-05T07:30:36.205Z,90.90
2017-08-05T07:33:03.721Z,90.80
2017-08-05T07:35:31.390Z,90.60
2017-08-05T07:37:58.941Z,90.50
2017-08-05T07:40:26.457Z,90.30
2017-08-05T07:42:54.748Z,90.80
2017-08-05T07:45:22.261Z,90.50
2017-08-05T07:47:50.553Z,90.80
2017-08-05T07:50:18.180Z,90.70
2017-08-05T07:52:45.741Z,90.10
2017-08-05T07:55:13.285Z,90.00
2017-08-05T07:57:40.829Z,90.00
2017-08-05T08:00:08.314Z,90.50
2017-08-05T08:02:35.874Z,90.40
2017-08-05T08:05:03.449Z,90.10
2017-08-05T08:07:31.052Z,90.00
2017-08-05T08:09:58.739Z,90.40
2017-08-05T08:12:26.290Z,90.00
2017-08-05T08:14:53.782Z,90.20
2017-08-05T08:17:21.325Z,89.90
2017-08-05T08:19:48.849Z,89.60
2017-08-05T08:22:16.350Z,88.90
2017-08-05T08:24:44.622Z,89.70
2017-08-05T08:27:12.178Z,89.60
2017-08-05T08:29:39.717Z,88.90
2017-08-05T08:32:07.272Z,86.40
2017-08-05T08:34:34.818Z,86.70
2017-08-05T08:37:02.774Z,85.80
2017-08-05T08:39:30.911Z,85.80
2017-08-05T08:41:58.696Z,84.80
2017-08-05T08:44:27.018Z,85.90
2017-08-05T08:46:54.525Z,85.80
2017-08-05T08:49:22.025Z,86.50
2017-08-05T08:51:49.701Z,85.30
2017-08-05T08:54:17.323Z,86.20
2017-08-05T08:56:44.833Z,84.80
2017-08-05T08:59:13.118Z,86.10
2017-08-05T09:01:40.657Z,85.90
2017-08-05T09:04:08.204Z,87.00
2017-08-05T09:06:36.176Z,84.40
2017-08-05T09:09:03.826Z,86.40
2017-08-05T09:11:31.365Z,86.70
2017-08-05T09:13:58.933Z,86.90
2017-08-05T09:16:26.469Z,87.40
2017-08-05T09:18:53.957Z,88.00
2017-08-05T09:21:22.293Z,88.30
2017-08-05T09:23:49.825Z,88.40
2017-08-05T09:26:17.366Z,86.50
2017-08-05T09:28:45.688Z,85.40
2017-08-05T09:31:13.197Z,85.30
2017-08-05T09:33:40.777Z,86.40
2017-08-05T09:36:08.320Z,87.10
2017-08-05T09:38:35.809Z,86.80
2017-08-05T09:41:03.314Z,86.80
2017-08-05T09:43:30.810Z,86.60
2017-08-05T09:45:58.397Z,86.90
2017-08-05T09:48:25.885Z,86.20
2017-08-05T09:50:53.485Z,84.70
2017-08-05T09:53:20.973Z,85.60
2017-08-05T09:55:48.496Z,85.00
2017-08-05T09:58:16.032Z,85.50
2017-08-05T10:00:43.557Z,86.00
2017-08-05T10:03:11.066Z,85.30
2017-08-05T10:05:39.321Z,84.70
2017-08-05T10:08:06.904Z,85.10
2017-08-05T10:10:34.453Z,84.30
2017-08-05T10:13:02.000Z,85.30
2017-08-05T10:15:29.556Z,84.20
2017-08-05T10:17:57.090Z,83.60
2017-08-05T10:20:24.585Z,83.20
2017-08-05T10:22:52.093Z,83.60
2017-08-05T10:25:19.615Z,82.50
2017-08-05T10:27:47.170Z,82.20
2017-08-05T10:30:14.665Z,81.60
2017-08-05T10:32:42.247Z,80.80
2017-08-05T10:35:09.737Z,81.30
2017-08-05T10:37:37.241Z,82.60
2017-08-05T10:40:04.777Z,80.60
2017-08-05T10:42:32.323Z,81.20
2017-08-05T10:44:59.874Z,81.10
2017-08-05T10:47:27.409Z,80.40
2017-08-05T10:49:54.907Z,76.60
2017-08-05T10:52:22.409Z,76.60
2017-08-05T10:54:49.942Z,76.30
2017-08-05T10:57:17.481Z,74.10
2017-08-05T10:59:44.970Z,73.80
2017-08-05T11:02:12.565Z,74.30
2017-08-05T11:04:40.113Z,75.20
2017-08-05T11:07:07.633Z,72.70
2017-08-05T11:09:35.885Z,73.30
2017-08-05T11:12:04.199Z,72.40
2017-08-05T11:14:31.720Z,72.40
2017-08-05T11:16:59.286Z,72.00
2017-08-05T11:19:26.793Z,69.30
2017-08-05T11:21:55.173Z,67.20
2017-08-05T11:24:22.721Z,67.30
2017-08-05T11:26:50.213Z,65.40
2017-08-05T11:29:17.736Z,65.40
2017-08-05T11:31:45.352Z,65.70
2017-08-05T11:34:12.857Z,65.30
2017-08-05T11:36:41.253Z,64.90
2017-08-05T11:39:08.753Z,64.70
2017-08-05T11:41:36.343Z,62.80
2017-08-05T11:44:03.910Z,62.00
2017-08-05T11:46:31.447Z,62.80
2017-08-05T11:48:58.981Z,63.50
2017-08-05T11:51:26.472Z,61.30
2017-08-05T11:53:53.980Z,62.60
2017-08-05T11:56:21.509Z,62.20
2017-08-05T11:58:49.017Z,64.60
2017-08-05T12:01:17.334Z,60.20
2017-08-05T12:03:44.878Z,60.10
2017-08-05T12:06:12.361Z,54.90
2017-08-05T12:08:39.940Z,56.30
2017-08-05T12:11:07.431Z,58.00
2017-08-05T12:13:34.939Z,56.90
2017-08-05T12:16:02.490Z,58.80
2017-08-05T12:18:30.024Z,61.00
2017-08-05T12:20:57.637Z,62.30
2017-08-05T12:23:25.125Z,62.40
2017-08-05T12:25:52.721Z,63.80
2017-08-05T12:28:20.209Z,63.20
2017-08-05T12:30:47.813Z,63.70
2017-08-05T12:33:15.366Z,63.10
2017-08-05T12:35:42.904Z,64.50
2017-08-05T12:38:10.393Z,64.30
2017-08-05T12:40:37.901Z,62.00
2017-08-05T12:43:05.455Z,57.10
2017-08-05T12:45:32.977Z,56.80
2017-08-05T12:48:00.521Z,58.00
2017-08-05T12:50:28.026Z,59.10
2017-08-05T12:52:55.605Z,60.30
2017-08-05T12:55:23.154Z,60.50
2017-08-05T12:57:50.694Z,60.80
2017-08-05T13:00:18.217Z,56.20
2017-08-05T13:02:46.522Z,54.30
2017-08-05T13:05:14.042Z,54.30
2017-08-05T13:07:41.597Z,52.70
2017-08-05T13:10:09.106Z,53.60
2017-08-05T13:12:37.361Z,55.30
2017-08-05T13:15:05.653Z,59.40
2017-08-05T13:17:33.225Z,58.50
2017-08-05T13:20:00.742Z,58.00
2017-08-05T13:22:28.244Z,58.90
2017-08-05T13:24:55.728Z,60.30
2017-08-05T13:27:23.233Z,60.40
2017-08-05T13:29:50.717Z,60.50
2017-08-05T13:32:18.268Z,57.70
2017-08-05T13:34:45.925Z,58.90
2017-08-05T13:37:13.553Z,58.20
2017-08-05T13:39:41.092Z,56.20
2017-08-05T13:42:08.597Z,52.50
2017-08-05T13:44:36.181Z,51.20
2017-08-05T13:47:03.730Z,51.20
2017-08-05T13:49:31.293Z,53.20
2017-08-05T13:51:58.797Z,53.20
2017-08-05T13:54:26.319Z,53.30
2017-08-05T13:56:53.836Z,53.20
2017-08-05T13:59:22.121Z,54.70
2017-08-05T14:01:49.635Z,54.70
2017-08-05T14:04:18.034Z,55.80
2017-08-05T14:06:45.531Z,55.80
2017-08-05T14:09:13.117Z,55.00
2017-08-05T14:11:40.605Z,55.40
2017-08-05T14:14:08.146Z,55.40
2017-08-05T14:16:36.087Z,55.10
2017-08-05T14:19:03.593Z,56.40
2017-08-05T14:21:31.080Z,58.90
2017-08-05T14:23:58.611Z,58.20
2017-08-05T14:26:26.099Z,59.30
2017-08-05T14:28:54.393Z,60.30
2017-08-05T14:31:22.042Z,60.20
2017-08-05T14:33:49.588Z,64.30
2017-08-05T14:36:17.081Z,64.70
2017-08-05T14:38:44.602Z,67.70
2017-08-05T14:41:12.120Z,70.70
2017-08-05T14:43:39.664Z,74.00
2017-08-05T14:46:07.178Z,74.60
2017-08-05T14:48:35.429Z,75.10
2017-08-05T14:51:03.703Z,77.10
2017-08-05T14:53:31.294Z,76.40
2017-08-05T14:55:58.829Z,76.50
2017-08-05T14:58:26.380Z,77.80
2017-08-05T15:00:53.918Z,77.50
2017-08-05T15:03:21.409Z,77.90
2017-08-05T15:05:49.773Z,78.50
2017-08-05T15:08:17.261Z,77.30
2017-08-05T15:10:44.773Z,76.50
2017-08-05T15:13:13.177Z,77.90
2017-08-05T15:15:40.717Z,78.40
2017-08-05T15:18:08.208Z,77.00
2017-08-05T15:20:35.815Z,77.70
2017-08-05T15:23:03.353Z,77.90
2017-08-05T15:25:30.892Z,78.00
2017-08-05T15:27:58.398Z,78.10
2017-08-05T15:30:25.897Z,78.60
2017-08-05T15:32:53.421Z,78.90
2017-08-05T15:35:20.909Z,79.30
2017-08-05T15:37:48.513Z,78.90
2017-08-05T15:40:16.019Z,78.10
2017-08-05T15:42:43.596Z,78.40
2017-08-05T15:45:11.141Z,78.40
2017-08-05T15:47:38.711Z,79.00
2017-08-05T15:50:06.234Z,78.80
2017-08-05T15:52:33.742Z,77.00
2017-08-05T15:55:01.227Z,77.20
2017-08-05T15:57:28.782Z,78.50
2017-08-05T15:59:56.266Z,78.40
2017-08-05T16:02:23.861Z,77.20
2017-08-05T16:04:51.345Z,77.50
2017-08-05T16:07:18.866Z,75.50
2017-08-05T16:09:46.390Z,76.90
2017-08-05T16:12:13.898Z,77.10
2017-08-05T16:14:41.415Z,76.10
2017-08-05T16:17:08.926Z,75.00
2017-08-05T16:19:36.437Z,74.00
2017-08-05T16:22:03.951Z,74.40
2017-08-05T16:24:31.557Z,73.90
2017-08-05T16:26:59.103Z,74.70
2017-08-05T16:29:26.614Z,74.90
2017-08-05T16:31:54.909Z,75.80
2017-08-05T16:34:24.469Z,75.10
2017-08-05T16:36:52.729Z,74.50
2017-08-05T16:39:21.017Z,74.60
2017-08-05T16:41:48.590Z,74.70
2017-08-05T16:44:16.103Z,74.40
2017-08-05T16:46:43.653Z,75.00
2017-08-05T16:49:11.169Z,75.50
2017-08-05T16:51:38.697Z,74.80
2017-08-05T16:54:06.956Z,74.80
2017-08-05T16:56:35.253Z,74.70
2017-08-05T16:59:02.783Z,75.20
2017-08-05T17:01:30.303Z,75.00
2017-08-05T17:03:58.565Z,75.10
2017-08-05T17:06:26.837Z,74.50
2017-08-05T17:08:54.385Z,74.40
2017-08-05T17:11:21.893Z,74.80
2017-08-05T17:13:50.171Z,74.50
2017-08-05T17:16:17.736Z,74.60
2017-08-05T17:18:45.233Z,74.80
2017-08-05T17:21:12.741Z,75.10
2017-08-05T17:23:40.333Z,74.50
2017-08-05T17:26:07.883Z,74.30
2017-08-05T17:28:35.427Z,72.70
2017-08-05T17:31:02.970Z,73.80
2017-08-05T17:33:30.485Z,73.50
2017-08-05T17:35:58.733Z,74.20
2017-08-05T17:38:26.265Z,74.10
2017-08-05T17:40:53.973Z,73.90
2017-08-05T17:43:21.505Z,73.90
2017-08-05T17:45:49.072Z,75.30
2017-08-05T17:48:16.627Z,74.80
2017-08-05T17:50:44.117Z,74.90
2017-08-05T17:53:12.502Z,75.30
2017-08-05T17:55:40.045Z,75.40
2017-08-05T17:58:07.589Z,74.10
2017-08-05T18:00:35.133Z,73.90
2017-08-05T18:03:03.014Z,74.60
2017-08-05T18:05:30.525Z,74.30
2017-08-05T18:07:58.025Z,75.10
2017-08-05T18:10:25.618Z,74.80
2017-08-05T18:12:53.161Z,75.50
2017-08-05T18:15:20.712Z,75.80
2017-08-05T18:17:48.357Z,76.20
2017-08-05T18:20:16.629Z,77.60
2017-08-05T18:22:44.320Z,77.50
2017-08-05T18:25:11.937Z,77.20
2017-08-05T18:27:39.485Z,77.10
2017-08-05T18:30:06.992Z,76.90
2017-08-05T18:32:35.310Z,77.50
2017-08-05T18:35:03.035Z,77.50
2017-08-05T18:37:30.533Z,77.70
2017-08-05T18:39:58.128Z,78.30
2017-08-05T18:42:25.634Z,77.70
2017-08-05T18:44:53.921Z,78.70
2017-08-05T18:47:21.477Z,78.10
2017-08-05T18:49:49.020Z,78.40
2017-08-05T18:52:16.526Z,78.70
2017-08-05T18:54:44.053Z,78.80
2017-08-05T18:57:11.590Z,78.50
2017-08-05T18:59:39.081Z,77.60
2017-08-05T19:02:06.594Z,78.30
2017-08-05T19:04:34.178Z,77.80
2017-08-05T19:07:01.685Z,77.20
2017-08-05T19:09:29.985Z,76.20
2017-08-05T19:11:57.536Z,76.20
2017-08-05T19:14:25.096Z,76.10
2017-08-05T19:16:52.613Z,75.40
2017-08-05T19:19:20.140Z,75.90
2017-08-05T19:21:47.629Z,76.50
2017-08-05T19:24:15.154Z,78.50
2017-08-05T19:26:43.459Z,80.20
2017-08-05T19:29:10.996Z,80.10
2017-08-05T19:31:38.538Z,80.60
2017-08-05T19:34:06.050Z,80.60
2017-08-05T19:36:34.342Z,81.40
2017-08-05T19:39:01.854Z,80.50
2017-08-05T19:41:30.150Z,79.30
2017-08-05T19:43:57.688Z,79.30
2017-08-05T19:46:25.185Z,78.90
2017-08-05T19:48:52.782Z,79.10
2017-08-05T19:51:20.285Z,78.50
2017-08-05T19:53:48.585Z,77.60
2017-08-05T19:56:16.129Z,77.60
2017-08-05T19:58:43.677Z,77.90
2017-08-05T20:01:11.207Z,77.70
2017-08-05T20:03:38.696Z,78.30
2017-08-05T20:06:06.996Z,78.20
2017-08-05T20:08:35.364Z,80.40
2017-08-05T20:11:02.924Z,80.40
2017-08-05T20:13:30.421Z,79.70
2017-08-05T20:15:57.940Z,79.70
2017-08-05T20:18:27.489Z,79.70
2017-08-05T20:20:55.154Z,80.20
2017-08-05T20:23:22.649Z,80.90
2017-08-05T20:25:50.170Z,81.30
2017-08-05T20:28:17.665Z,81.40
2017-08-05T20:30:45.238Z,81.50
2017-08-05T20:33:12.765Z,82.00
2017-08-05T20:35:40.269Z,82.10
2017-08-05T20:38:07.789Z,82.40
2017-08-05T20:40:35.276Z,81.40
2017-08-05T20:43:03.561Z,81.00
2017-08-05T20:45:31.053Z,81.00
2017-08-05T20:47:58.595Z,81.00
2017-08-05T20:50:26.904Z,81.00
2017-08-05T20:52:54.423Z,80.90
2017-08-05T20:55:22.681Z,81.30
2017-08-05T20:57:50.210Z,81.30
2017-08-05T21:00:17.710Z,81.80
2017-08-05T21:02:45.216Z,81.50
2017-08-05T21:05:13.470Z,81.20
2017-08-05T21:07:41.753Z,81.10
2017-08-05T21:10:09.246Z,81.10
2017-08-05T21:12:36.733Z,81.70
2017-08-05T21:15:04.293Z,81.80
2017-08-05T21:17:31.857Z,82.40
2017-08-05T21:19:59.438Z,83.10
2017-08-05T21:22:26.994Z,82.50
2017-08-05T21:24:54.541Z,83.20
2017-08-05T21:27:22.033Z,82.60
2017-08-05T21:29:49.538Z,82.90
2017-08-05T21:32:17.073Z,82.20
2017-08-05T21:34:44.588Z,82.60
2017-08-05T21:37:12.845Z,83.20
2017-08-05T21:39:41.129Z,83.30
2017-08-05T21:42:08.677Z,83.30
2017-08-05T21:44:36.186Z,83.10
2017-08-05T21:47:04.481Z,82.50
2017-08-05T21:49:32.001Z,82.40
2017-08-05T21:52:00.256Z,83.10
2017-08-05T21:54:28.519Z,82.60
2017-08-05T21:56:56.805Z,82.30
2017-08-05T21:59:24.301Z,82.20
2017-08-05T22:01:51.895Z,83.80
2017-08-05T22:04:19.438Z,83.70
2017-08-05T22:06:46.986Z,83.10
2017-08-05T22:09:14.530Z,83.00
2017-08-05T22:11:42.862Z,82.30
2017-08-05T22:14:10.390Z,81.90
2017-08-05T22:16:37.926Z,82.40
2017-08-05T22:19:05.442Z,82.00
2017-08-05T22:21:32.982Z,82.00
2017-08-05T22:24:00.473Z,81.60
2017-08-05T22:26:27.993Z,81.50
2017-08-05T22:28:55.485Z,82.20
2017-08-05T22:31:23.736Z,82.60
2017-08-05T22:33:51.341Z,81.80
2017-08-05T22:36:18.829Z,82.40
2017-08-05T22:38:47.125Z,83.00
2017-08-05T22:41:14.609Z,82.20
2017-08-05T22:43:42.113Z,81.70
2017-08-05T22:46:09.598Z,81.60
2017-08-05T22:48:37.196Z,80.90
2017-08-05T22:51:04.743Z,80.70
2017-08-05T22:53:32.384Z,80.70
2017-08-05T22:55:59.877Z,80.50
2017-08-05T22:58:27.477Z,81.10
2017-08-05T23:00:55.044Z,81.70
2017-08-05T23:03:22.590Z,81.50
2017-08-05T23:05:50.121Z,81.40
2017-08-05T23:10:51.562Z,80.40
2017-08-05T23:13:19.096Z,80.90
2017-08-05T23:15:46.654Z,81.30
2017-08-05T23:18:14.177Z,81.60
2017-08-05T23:20:41.717Z,81.80
2017-08-05T23:23:09.209Z,82.10
2017-08-05T23:25:36.797Z,82.30
2017-08-05T23:28:04.450Z,82.60
2017-08-05T23:30:31.988Z,82.70
2017-08-05T23:32:59.474Z,82.70
2017-08-05T23:35:26.976Z,82.90
2017-08-05T23:37:54.521Z,83.00
2017-08-05T23:40:22.213Z,83.00
2017-08-05T23:42:49.697Z,83.10
2017-08-05T23:45:17.209Z,83.20
2017-08-05T23:47:44.697Z,83.50
2017-08-05T23:50:12.242Z,83.50
2017-08-05T23:52:39.790Z,83.80
2017-08-05T23:55:07.320Z,84.00
2017-08-05T23:57:34.813Z,83.90
